sensor_id;sensor_type;location;lat;lon;timestamp;pressure;altitude;pressure_sealevel;temperature;humidity
20987;BME280;10652;50.306;8.570;2024-01-06T00:03:27;96677.19;;;2.67;95.93
20987;BME280;10652;50.306;8.570;2024-01-06T00:07:29;96680.19;;;2.56;96.00
20987;BME280;10652;50.306;8.570;2024-01-06T00:11:32;96677.97;;;2.45;97.19
20987;BME280;10652;50.306;8.570;2024-01-06T00:15:34;96680.69;;;2.42;98.06
20987;BME280;10652;50.306;8.570;2024-01-06T00:19:36;96692.19;;;2.59;99.34
20987;BME280;10652;50.306;8.570;2024-01-06T00:23:40;96684.53;;;2.77;99.30
20987;BME280;10652;50.306;8.570;2024-01-06T00:27:43;96694.56;;;2.86;98.27
20987;BME280;10652;50.306;8.570;2024-01-06T00:31:45;96691.56;;;2.97;98.22
20987;BME280;10652;50.306;8.570;2024-01-06T00:35:48;96698.63;;;3.15;98.08
20987;BME280;10652;50.306;8.570;2024-01-06T00:39:50;96695.63;;;3.26;97.36
20987;BME280;10652;50.306;8.570;2024-01-06T00:43:52;96706.53;;;3.34;97.09
20987;BME280;10652;50.306;8.570;2024-01-06T00:47:54;96707.91;;;3.43;96.89
20987;BME280;10652;50.306;8.570;2024-01-06T00:51:56;96705.75;;;3.54;96.33
20987;BME280;10652;50.306;8.570;2024-01-06T00:55:58;96708.34;;;3.54;95.37
20987;BME280;10652;50.306;8.570;2024-01-06T01:00:01;96704.94;;;3.52;94.93
20987;BME280;10652;50.306;8.570;2024-01-06T01:04:03;96710.84;;;3.55;94.97
20987;BME280;10652;50.306;8.570;2024-01-06T01:08:07;96708.34;;;3.54;94.78
20987;BME280;10652;50.306;8.570;2024-01-06T01:12:09;96722.03;;;3.57;94.43
20987;BME280;10652;50.306;8.570;2024-01-06T01:16:11;96720.81;;;3.66;94.79
20987;BME280;10652;50.306;8.570;2024-01-06T01:20:13;96719.34;;;3.80;94.50
20987;BME280;10652;50.306;8.570;2024-01-06T01:24:15;96721.66;;;3.88;94.06
20987;BME280;10652;50.306;8.570;2024-01-06T01:28:17;96722.31;;;3.93;93.93
20987;BME280;10652;50.306;8.570;2024-01-06T01:32:19;96723.84;;;3.97;93.34
20987;BME280;10652;50.306;8.570;2024-01-06T01:36:22;96717.75;;;3.98;93.07
20987;BME280;10652;50.306;8.570;2024-01-06T01:40:24;96718.47;;;4.02;92.36
20987;BME280;10652;50.306;8.570;2024-01-06T01:44:26;96714.88;;;4.04;92.20
20987;BME280;10652;50.306;8.570;2024-01-06T01:48:28;96722.44;;;4.10;92.20
20987;BME280;10652;50.306;8.570;2024-01-06T01:52:31;96726.34;;;4.20;92.41
20987;BME280;10652;50.306;8.570;2024-01-06T01:56:35;96733.78;;;4.28;91.11
20987;BME280;10652;50.306;8.570;2024-01-06T02:00:38;96743.22;;;4.31;90.74
20987;BME280;10652;50.306;8.570;2024-01-06T02:04:40;96746.72;;;4.30;90.66
20987;BME280;10652;50.306;8.570;2024-01-06T02:08:43;96754.47;;;4.31;90.38
20987;BME280;10652;50.306;8.570;2024-01-06T02:12:45;96763.03;;;4.33;90.03
20987;BME280;10652;50.306;8.570;2024-01-06T02:16:47;96755.69;;;4.22;89.22
20987;BME280;10652;50.306;8.570;2024-01-06T02:20:49;96766.22;;;4.19;89.63
20987;BME280;10652;50.306;8.570;2024-01-06T02:24:53;96769.72;;;4.18;90.75
20987;BME280;10652;50.306;8.570;2024-01-06T02:28:55;96766.72;;;4.28;91.13
20987;BME280;10652;50.306;8.570;2024-01-06T02:32:57;96775.31;;;4.30;90.75
20987;BME280;10652;50.306;8.570;2024-01-06T02:37:00;96773.44;;;4.33;90.41
20987;BME280;10652;50.306;8.570;2024-01-06T02:41:02;96777.78;;;4.33;89.95
20987;BME280;10652;50.306;8.570;2024-01-06T02:45:04;96774.28;;;4.34;89.85
20987;BME280;10652;50.306;8.570;2024-01-06T02:49:07;96787.28;;;4.34;89.42
20987;BME280;10652;50.306;8.570;2024-01-06T02:53:10;96788.06;;;4.36;89.54
20987;BME280;10652;50.306;8.570;2024-01-06T02:57:14;96788.06;;;4.36;89.46
20987;BME280;10652;50.306;8.570;2024-01-06T03:01:17;96798.19;;;4.42;89.41
20987;BME280;10652;50.306;8.570;2024-01-06T03:05:20;96801.44;;;4.47;88.93
20987;BME280;10652;50.306;8.570;2024-01-06T03:09:22;96798.78;;;4.48;88.91
20987;BME280;10652;50.306;8.570;2024-01-06T03:13:24;96801.44;;;4.47;88.16
20987;BME280;10652;50.306;8.570;2024-01-06T03:17:26;96799.75;;;4.46;88.14
20987;BME280;10652;50.306;8.570;2024-01-06T03:21:28;96800.59;;;4.46;88.08
20987;BME280;10652;50.306;8.570;2024-01-06T03:25:30;96805.03;;;4.44;88.04
20987;BME280;10652;50.306;8.570;2024-01-06T03:29:32;96803.13;;;4.48;88.65
20987;BME280;10652;50.306;8.570;2024-01-06T03:33:34;96808.09;;;4.54;88.27
20987;BME280;10652;50.306;8.570;2024-01-06T03:37:37;96811.44;;;4.56;87.82
20987;BME280;10652;50.306;8.570;2024-01-06T03:41:39;96809.88;;;4.52;87.89
20987;BME280;10652;50.306;8.570;2024-01-06T03:45:41;96810.53;;;4.57;88.36
20987;BME280;10652;50.306;8.570;2024-01-06T03:49:43;96808.78;;;4.57;87.98
20987;BME280;10652;50.306;8.570;2024-01-06T03:53:45;96813.13;;;4.57;87.94
20987;BME280;10652;50.306;8.570;2024-01-06T03:57:47;96803.66;;;4.36;87.44
20987;BME280;10652;50.306;8.570;2024-01-06T04:01:49;96810.88;;;4.29;89.15
20987;BME280;10652;50.306;8.570;2024-01-06T04:05:51;96805.72;;;4.28;89.67
20987;BME280;10652;50.306;8.570;2024-01-06T04:09:53;96815.25;;;4.27;89.87
20987;BME280;10652;50.306;8.570;2024-01-06T04:13:56;96825.81;;;4.24;90.33
20987;BME280;10652;50.306;8.570;2024-01-06T04:18:01;96813.97;;;4.17;90.69
20987;BME280;10652;50.306;8.570;2024-01-06T04:22:04;96813.03;;;4.18;91.27
20987;BME280;10652;50.306;8.570;2024-01-06T04:26:06;96813.00;;;4.19;91.59
20987;BME280;10652;50.306;8.570;2024-01-06T04:30:09;96825.03;;;4.22;91.29
20987;BME280;10652;50.306;8.570;2024-01-06T04:34:11;96827.69;;;4.20;91.28
20987;BME280;10652;50.306;8.570;2024-01-06T04:38:14;96835.63;;;4.17;91.04
20987;BME280;10652;50.306;8.570;2024-01-06T04:42:16;96838.28;;;4.16;91.26
20987;BME280;10652;50.306;8.570;2024-01-06T04:46:18;96842.38;;;4.21;92.03
20987;BME280;10652;50.306;8.570;2024-01-06T04:50:20;96837.03;;;4.24;91.49
20987;BME280;10652;50.306;8.570;2024-01-06T04:54:22;96831.72;;;4.28;91.45
20987;BME280;10652;50.306;8.570;2024-01-06T04:58:24;96829.75;;;4.33;91.54
20987;BME280;10652;50.306;8.570;2024-01-06T05:02:26;96832.97;;;4.39;90.97
20987;BME280;10652;50.306;8.570;2024-01-06T05:06:29;96823.13;;;4.46;91.01
20987;BME280;10652;50.306;8.570;2024-01-06T05:10:32;96820.28;;;4.52;91.02
20987;BME280;10652;50.306;8.570;2024-01-06T05:14:34;96831.34;;;4.57;90.54
20987;BME280;10652;50.306;8.570;2024-01-06T05:18:36;96831.16;;;4.61;90.51
20987;BME280;10652;50.306;8.570;2024-01-06T05:22:38;96828.41;;;4.64;89.95
20987;BME280;10652;50.306;8.570;2024-01-06T05:26:40;96837.97;;;4.64;89.93
20987;BME280;10652;50.306;8.570;2024-01-06T05:30:42;96838.94;;;4.61;89.65
20987;BME280;10652;50.306;8.570;2024-01-06T05:34:45;96840.56;;;4.64;89.94
20987;BME280;10652;50.306;8.570;2024-01-06T05:38:47;96839.72;;;4.63;90.16
20987;BME280;10652;50.306;8.570;2024-01-06T05:42:53;96840.56;;;4.64;89.69
20987;BME280;10652;50.306;8.570;2024-01-06T05:46:57;96846.81;;;4.60;89.80
20987;BME280;10652;50.306;8.570;2024-01-06T05:50:59;96844.34;;;4.57;89.51
20987;BME280;10652;50.306;8.570;2024-01-06T05:55:01;96850.69;;;4.50;89.99
20987;BME280;10652;50.306;8.570;2024-01-06T05:59:03;96848.94;;;4.50;90.52
20987;BME280;10652;50.306;8.570;2024-01-06T06:03:05;96849.22;;;4.44;90.40
20987;BME280;10652;50.306;8.570;2024-01-06T06:07:09;96852.97;;;4.37;90.96
20987;BME280;10652;50.306;8.570;2024-01-06T06:11:11;96875.47;;;4.38;91.56
20987;BME280;10652;50.306;8.570;2024-01-06T06:15:13;96877.88;;;4.43;91.79
20987;BME280;10652;50.306;8.570;2024-01-06T06:19:16;96887.28;;;4.45;91.80
20987;BME280;10652;50.306;8.570;2024-01-06T06:23:20;96885.63;;;4.44;92.23
20987;BME280;10652;50.306;8.570;2024-01-06T06:27:23;96892.63;;;4.42;92.44
20987;BME280;10652;50.306;8.570;2024-01-06T06:31:25;96898.81;;;4.40;92.50
20987;BME280;10652;50.306;8.570;2024-01-06T06:35:27;96900.38;;;4.44;93.02
20987;BME280;10652;50.306;8.570;2024-01-06T06:39:29;96902.88;;;4.45;93.41
20987;BME280;10652;50.306;8.570;2024-01-06T06:43:33;96904.28;;;4.54;93.94
20987;BME280;10652;50.306;8.570;2024-01-06T06:47:35;96908.19;;;4.64;93.61
20987;BME280;10652;50.306;8.570;2024-01-06T06:51:37;96920.03;;;4.71;93.24
20987;BME280;10652;50.306;8.570;2024-01-06T06:55:46;96914.69;;;4.74;92.66
20987;BME280;10652;50.306;8.570;2024-01-06T06:59:49;96928.34;;;4.79;92.81
20987;BME280;10652;50.306;8.570;2024-01-06T07:03:51;96942.06;;;4.83;92.09
20987;BME280;10652;50.306;8.570;2024-01-06T07:07:53;96941.31;;;4.81;92.28
20987;BME280;10652;50.306;8.570;2024-01-06T07:11:55;96954.25;;;4.82;92.33
20987;BME280;10652;50.306;8.570;2024-01-06T07:15:59;96953.28;;;4.85;92.29
20987;BME280;10652;50.306;8.570;2024-01-06T07:20:18;96957.78;;;4.81;92.08
20987;BME280;10652;50.306;8.570;2024-01-06T07:24:21;96959.34;;;4.85;92.15
20987;BME280;10652;50.306;8.570;2024-01-06T07:28:24;96955.69;;;4.89;92.44
20987;BME280;10652;50.306;8.570;2024-01-06T07:32:26;96961.84;;;4.87;92.01
20987;BME280;10652;50.306;8.570;2024-01-06T07:36:28;96969.28;;;4.76;91.82
20987;BME280;10652;50.306;8.570;2024-01-06T07:40:30;96968.41;;;4.75;92.16
20987;BME280;10652;50.306;8.570;2024-01-06T07:44:33;96977.13;;;4.74;92.58
20987;BME280;10652;50.306;8.570;2024-01-06T07:48:35;96985.34;;;4.85;93.34
20987;BME280;10652;50.306;8.570;2024-01-06T07:52:37;96989.06;;;5.00;95.84
20987;BME280;10652;50.306;8.570;2024-01-06T07:56:40;96984.59;;;5.03;94.94
20987;BME280;10652;50.306;8.570;2024-01-06T08:00:42;97000.13;;;5.05;94.65
20987;BME280;10652;50.306;8.570;2024-01-06T08:04:44;97001.88;;;5.04;93.85
20987;BME280;10652;50.306;8.570;2024-01-06T08:08:46;97008.00;;;5.03;93.48
20987;BME280;10652;50.306;8.570;2024-01-06T08:12:48;97013.88;;;5.08;93.96
20987;BME280;10652;50.306;8.570;2024-01-06T08:16:51;97020.38;;;5.19;94.13
20987;BME280;10652;50.306;8.570;2024-01-06T08:20:53;97029.53;;;5.27;95.35
20987;BME280;10652;50.306;8.570;2024-01-06T08:24:55;97033.31;;;5.20;95.16
20987;BME280;10652;50.306;8.570;2024-01-06T08:28:57;97035.53;;;5.29;95.43
20987;BME280;10652;50.306;8.570;2024-01-06T08:32:59;97035.22;;;5.37;94.21
20987;BME280;10652;50.306;8.570;2024-01-06T08:37:01;97040.31;;;5.40;93.94
20987;BME280;10652;50.306;8.570;2024-01-06T08:41:05;97048.78;;;5.45;93.59
20987;BME280;10652;50.306;8.570;2024-01-06T08:45:08;97053.00;;;5.47;93.10
20987;BME280;10652;50.306;8.570;2024-01-06T08:49:10;97052.13;;;5.47;92.52
20987;BME280;10652;50.306;8.570;2024-01-06T08:53:12;97055.59;;;5.47;92.42
20987;BME280;10652;50.306;8.570;2024-01-06T08:57:15;97066.81;;;5.49;92.06
20987;BME280;10652;50.306;8.570;2024-01-06T09:01:17;97073.56;;;5.53;92.40
20987;BME280;10652;50.306;8.570;2024-01-06T09:05:19;97071.34;;;5.65;93.83
20987;BME280;10652;50.306;8.570;2024-01-06T09:09:21;97081.31;;;5.75;94.31
20987;BME280;10652;50.306;8.570;2024-01-06T09:13:25;97081.81;;;5.83;93.58
20987;BME280;10652;50.306;8.570;2024-01-06T09:17:27;97071.00;;;5.92;92.56
20987;BME280;10652;50.306;8.570;2024-01-06T09:21:29;97075.09;;;5.98;91.97
20987;BME280;10652;50.306;8.570;2024-01-06T09:25:31;97085.31;;;6.02;91.09
20987;BME280;10652;50.306;8.570;2024-01-06T09:29:34;97079.94;;;6.05;90.19
20987;BME280;10652;50.306;8.570;2024-01-06T09:33:36;97087.91;;;6.02;89.25
20987;BME280;10652;50.306;8.570;2024-01-06T09:37:38;97094.84;;;6.03;89.20
20987;BME280;10652;50.306;8.570;2024-01-06T09:41:40;97101.47;;;6.11;89.20
20987;BME280;10652;50.306;8.570;2024-01-06T09:45:43;97110.56;;;6.21;88.90
20987;BME280;10652;50.306;8.570;2024-01-06T09:49:50;97107.81;;;6.24;88.02
20987;BME280;10652;50.306;8.570;2024-01-06T09:53:58;97101.91;;;6.20;87.74
20987;BME280;10652;50.306;8.570;2024-01-06T09:58:01;97101.59;;;6.08;86.67
20987;BME280;10652;50.306;8.570;2024-01-06T10:02:06;97098.66;;;5.95;87.20
20987;BME280;10652;50.306;8.570;2024-01-06T10:06:08;97111.91;;;5.90;86.99
20987;BME280;10652;50.306;8.570;2024-01-06T10:10:12;97108.66;;;5.85;87.27
20987;BME280;10652;50.306;8.570;2024-01-06T10:14:14;97113.09;;;5.83;87.43
20987;BME280;10652;50.306;8.570;2024-01-06T10:18:16;97116.34;;;5.88;88.23
20987;BME280;10652;50.306;8.570;2024-01-06T10:22:18;97130.88;;;5.94;87.63
20987;BME280;10652;50.306;8.570;2024-01-06T10:26:21;97130.34;;;6.06;88.27
20987;BME280;10652;50.306;8.570;2024-01-06T10:30:24;97130.78;;;6.16;87.32
20987;BME280;10652;50.306;8.570;2024-01-06T10:34:27;97134.44;;;6.12;86.07
20987;BME280;10652;50.306;8.570;2024-01-06T10:38:31;97144.88;;;6.12;86.83
20987;BME280;10652;50.306;8.570;2024-01-06T10:42:33;97153.06;;;6.23;86.92
20987;BME280;10652;50.306;8.570;2024-01-06T10:46:36;97145.66;;;6.34;86.75
20987;BME280;10652;50.306;8.570;2024-01-06T10:50:38;97145.38;;;6.40;86.07
20987;BME280;10652;50.306;8.570;2024-01-06T10:54:41;97153.72;;;6.48;87.74
20987;BME280;10652;50.306;8.570;2024-01-06T10:58:47;97141.00;;;6.59;88.11
20987;BME280;10652;50.306;8.570;2024-01-06T11:02:52;97153.28;;;6.57;87.21
20987;BME280;10652;50.306;8.570;2024-01-06T11:06:55;97142.69;;;6.60;88.34
20987;BME280;10652;50.306;8.570;2024-01-06T11:10:58;97133.38;;;6.55;87.59
20987;BME280;10652;50.306;8.570;2024-01-06T11:15:00;97132.84;;;6.48;86.92
20987;BME280;10652;50.306;8.570;2024-01-06T11:19:03;97133.94;;;6.42;86.61
20987;BME280;10652;50.306;8.570;2024-01-06T11:23:25;97126.41;;;6.36;86.94
20987;BME280;10652;50.306;8.570;2024-01-06T11:27:28;97132.84;;;6.48;87.92
20987;BME280;10652;50.306;8.570;2024-01-06T11:31:31;97123.69;;;6.58;87.46
20987;BME280;10652;50.306;8.570;2024-01-06T11:35:34;97127.31;;;6.54;87.22
20987;BME280;10652;50.306;8.570;2024-01-06T11:39:37;97132.13;;;6.44;87.76
20987;BME280;10652;50.306;8.570;2024-01-06T11:43:43;97136.06;;;6.34;88.25
20987;BME280;10652;50.306;8.570;2024-01-06T11:47:48;97130.38;;;6.25;89.70
20987;BME280;10652;50.306;8.570;2024-01-06T11:51:50;97130.97;;;6.31;91.35
20987;BME280;10652;50.306;8.570;2024-01-06T11:55:53;97132.00;;;6.47;91.98
20987;BME280;10652;50.306;8.570;2024-01-06T11:59:55;97127.53;;;6.68;91.30
20987;BME280;10652;50.306;8.570;2024-01-06T12:03:57;97124.38;;;6.80;90.57
20987;BME280;10652;50.306;8.570;2024-01-06T12:08:01;97114.41;;;6.88;89.74
20987;BME280;10652;50.306;8.570;2024-01-06T12:12:04;97116.13;;;6.89;88.06
20987;BME280;10652;50.306;8.570;2024-01-06T12:16:11;97114.13;;;6.95;88.11
20987;BME280;10652;50.306;8.570;2024-01-06T12:20:13;97113.50;;;6.89;87.54
20987;BME280;10652;50.306;8.570;2024-01-06T12:24:17;97126.25;;;6.77;87.50
20987;BME280;10652;50.306;8.570;2024-01-06T12:28:22;97119.66;;;6.70;88.13
20987;BME280;10652;50.306;8.570;2024-01-06T12:32:25;97125.06;;;6.65;88.70
20987;BME280;10652;50.306;8.570;2024-01-06T12:36:27;97125.03;;;6.67;89.58
20987;BME280;10652;50.306;8.570;2024-01-06T12:40:29;97120.78;;;6.64;89.32
20987;BME280;10652;50.306;8.570;2024-01-06T12:44:31;97124.28;;;6.63;89.15
20987;BME280;10652;50.306;8.570;2024-01-06T12:48:35;97125.00;;;6.48;88.62
20987;BME280;10652;50.306;8.570;2024-01-06T12:52:37;97124.09;;;6.49;91.04
20987;BME280;10652;50.306;8.570;2024-01-06T12:56:41;97125.50;;;6.56;91.49
20987;BME280;10652;50.306;8.570;2024-01-06T13:00:43;97138.25;;;6.43;89.23
20987;BME280;10652;50.306;8.570;2024-01-06T13:04:45;97144.59;;;6.18;89.63
20987;BME280;10652;50.306;8.570;2024-01-06T13:08:47;97146.78;;;5.88;90.96
20987;BME280;10652;50.306;8.570;2024-01-06T13:12:50;97154.47;;;5.71;92.75
20987;BME280;10652;50.306;8.570;2024-01-06T13:16:54;97156.00;;;5.54;93.89
20987;BME280;10652;50.306;8.570;2024-01-06T13:20:56;97161.94;;;5.36;93.97
20987;BME280;10652;50.306;8.570;2024-01-06T13:24:59;97171.13;;;5.25;93.82
20987;BME280;10652;50.306;8.570;2024-01-06T13:29:01;97172.94;;;5.44;100.00
20987;BME280;10652;50.306;8.570;2024-01-06T13:33:04;97175.44;;;5.46;93.09
20987;BME280;10652;50.306;8.570;2024-01-06T13:37:09;97175.09;;;5.33;92.78
20987;BME280;10652;50.306;8.570;2024-01-06T13:41:12;97177.91;;;5.29;93.35
20987;BME280;10652;50.306;8.570;2024-01-06T13:45:14;97184.94;;;5.27;93.41
20987;BME280;10652;50.306;8.570;2024-01-06T13:49:17;97190.16;;;5.27;92.82
20987;BME280;10652;50.306;8.570;2024-01-06T13:53:19;97192.19;;;5.19;91.43
20987;BME280;10652;50.306;8.570;2024-01-06T13:57:22;97189.75;;;5.14;91.57
20987;BME280;10652;50.306;8.570;2024-01-06T14:01:24;97199.50;;;5.09;91.71
20987;BME280;10652;50.306;8.570;2024-01-06T14:05:26;97204.69;;;5.09;92.00
20987;BME280;10652;50.306;8.570;2024-01-06T14:09:28;97211.00;;;5.03;92.19
20987;BME280;10652;50.306;8.570;2024-01-06T14:13:30;97215.53;;;4.98;92.61
20987;BME280;10652;50.306;8.570;2024-01-06T14:17:34;97220.84;;;4.95;92.55
20987;BME280;10652;50.306;8.570;2024-01-06T14:21:37;97227.06;;;4.91;91.58
20987;BME280;10652;50.306;8.570;2024-01-06T14:25:40;97227.75;;;4.73;88.24
20987;BME280;10652;50.306;8.570;2024-01-06T14:29:42;97221.47;;;4.55;88.20
20987;BME280;10652;50.306;8.570;2024-01-06T14:33:44;97233.03;;;4.48;88.56
20987;BME280;10652;50.306;8.570;2024-01-06T14:37:47;97233.34;;;4.39;88.26
20987;BME280;10652;50.306;8.570;2024-01-06T14:41:49;97233.59;;;4.32;89.23
20987;BME280;10652;50.306;8.570;2024-01-06T14:45:52;97237.13;;;4.31;89.48
20987;BME280;10652;50.306;8.570;2024-01-06T14:49:54;97237.97;;;4.31;89.47
20987;BME280;10652;50.306;8.570;2024-01-06T14:53:56;97249.28;;;4.30;89.66
20987;BME280;10652;50.306;8.570;2024-01-06T14:57:59;97248.13;;;4.37;90.40
20987;BME280;10652;50.306;8.570;2024-01-06T15:02:01;97251.16;;;4.50;90.60
20987;BME280;10652;50.306;8.570;2024-01-06T15:06:03;97249.19;;;4.56;89.82
20987;BME280;10652;50.306;8.570;2024-01-06T15:10:06;97255.09;;;4.61;89.90
20987;BME280;10652;50.306;8.570;2024-01-06T15:14:11;97257.63;;;4.63;89.43
20987;BME280;10652;50.306;8.570;2024-01-06T15:18:13;97261.00;;;4.65;89.94
20987;BME280;10652;50.306;8.570;2024-01-06T15:22:16;97257.47;;;4.67;89.54
20987;BME280;10652;50.306;8.570;2024-01-06T15:26:24;97267.81;;;4.69;89.75
20987;BME280;10652;50.306;8.570;2024-01-06T15:30:26;97269.47;;;4.72;89.49
20987;BME280;10652;50.306;8.570;2024-01-06T15:34:29;97272.38;;;4.62;88.59
20987;BME280;10652;50.306;8.570;2024-01-06T15:38:31;97277.75;;;4.58;89.06
20987;BME280;10652;50.306;8.570;2024-01-06T15:42:33;97272.63;;;4.55;89.04
20987;BME280;10652;50.306;8.570;2024-01-06T15:46:35;97271.59;;;4.60;89.36
20987;BME280;10652;50.306;8.570;2024-01-06T15:50:37;97279.22;;;4.65;89.45
20987;BME280;10652;50.306;8.570;2024-01-06T15:54:39;97275.00;;;4.62;88.66
20987;BME280;10652;50.306;8.570;2024-01-06T15:58:41;97282.09;;;4.57;88.40
20987;BME280;10652;50.306;8.570;2024-01-06T16:02:43;97280.53;;;4.53;88.45
20987;BME280;10652;50.306;8.570;2024-01-06T16:06:46;97285.13;;;4.45;88.22
20987;BME280;10652;50.306;8.570;2024-01-06T16:10:49;97288.88;;;4.37;88.67
20987;BME280;10652;50.306;8.570;2024-01-06T16:14:51;97299.28;;;4.37;89.66
20987;BME280;10652;50.306;8.570;2024-01-06T16:18:53;97301.16;;;4.33;90.12
20987;BME280;10652;50.306;8.570;2024-01-06T16:22:56;97299.41;;;4.34;89.99
20987;BME280;10652;50.306;8.570;2024-01-06T16:26:58;97302.91;;;4.33;90.71
20987;BME280;10652;50.306;8.570;2024-01-06T16:31:00;97309.81;;;4.34;91.14
20987;BME280;10652;50.306;8.570;2024-01-06T16:35:03;97320.25;;;4.32;91.00
20987;BME280;10652;50.306;8.570;2024-01-06T16:39:05;97321.53;;;4.20;91.32
20987;BME280;10652;50.306;8.570;2024-01-06T16:43:07;97321.63;;;4.17;92.01
20987;BME280;10652;50.306;8.570;2024-01-06T16:47:09;97327.72;;;4.16;92.45
20987;BME280;10652;50.306;8.570;2024-01-06T16:51:11;97331.22;;;4.15;92.96
20987;BME280;10652;50.306;8.570;2024-01-06T16:55:15;97339.00;;;4.15;93.38
20987;BME280;10652;50.306;8.570;2024-01-06T16:59:17;97338.19;;;4.13;93.59
20987;BME280;10652;50.306;8.570;2024-01-06T17:03:20;97343.41;;;4.13;94.10
20987;BME280;10652;50.306;8.570;2024-01-06T17:07:22;97346.91;;;4.12;94.10
20987;BME280;10652;50.306;8.570;2024-01-06T17:11:25;97341.81;;;4.09;94.51
20987;BME280;10652;50.306;8.570;2024-01-06T17:15:29;97355.78;;;4.05;94.50
20987;BME280;10652;50.306;8.570;2024-01-06T17:19:32;97359.41;;;4.01;95.55
20987;BME280;10652;50.306;8.570;2024-01-06T17:23:35;97357.66;;;4.02;96.19
20987;BME280;10652;50.306;8.570;2024-01-06T17:27:37;97364.44;;;4.06;96.48
20987;BME280;10652;50.306;8.570;2024-01-06T17:31:39;97367.91;;;4.06;96.16
20987;BME280;10652;50.306;8.570;2024-01-06T17:35:42;97362.59;;;4.09;96.67
20987;BME280;10652;50.306;8.570;2024-01-06T17:39:44;97375.53;;;4.11;96.69
20987;BME280;10652;50.306;8.570;2024-01-06T17:43:46;97368.91;;;4.02;96.69
20987;BME280;10652;50.306;8.570;2024-01-06T17:47:49;97370.38;;;4.09;98.34
20987;BME280;10652;50.306;8.570;2024-01-06T17:51:51;97382.38;;;4.13;98.12
20987;BME280;10652;50.306;8.570;2024-01-06T17:55:53;97381.50;;;4.14;97.87
20987;BME280;10652;50.306;8.570;2024-01-06T17:59:55;97387.44;;;4.18;98.16
20987;BME280;10652;50.306;8.570;2024-01-06T18:03:59;97386.66;;;4.16;97.59
20987;BME280;10652;50.306;8.570;2024-01-06T18:08:01;97394.56;;;4.13;97.54
20987;BME280;10652;50.306;8.570;2024-01-06T18:12:03;97394.75;;;4.07;97.56
20987;BME280;10652;50.306;8.570;2024-01-06T18:16:06;97388.69;;;4.06;98.22
20987;BME280;10652;50.306;8.570;2024-01-06T18:20:08;97394.75;;;4.07;98.27
20987;BME280;10652;50.306;8.570;2024-01-06T18:24:11;97399.19;;;4.03;98.18
20987;BME280;10652;50.306;8.570;2024-01-06T18:28:13;97398.34;;;4.03;99.05
20987;BME280;10652;50.306;8.570;2024-01-06T18:32:15;97404.38;;;4.03;98.48
20987;BME280;10652;50.306;8.570;2024-01-06T18:36:17;97403.69;;;3.98;98.89
20987;BME280;10652;50.306;8.570;2024-01-06T18:40:19;97407.13;;;3.99;99.63
20987;BME280;10652;50.306;8.570;2024-01-06T18:44:22;97415.78;;;3.99;99.63
20987;BME280;10652;50.306;8.570;2024-01-06T18:48:24;97414.84;;;4.00;100.00
20987;BME280;10652;50.306;8.570;2024-01-06T18:52:26;97411.66;;;3.92;99.59
20987;BME280;10652;50.306;8.570;2024-01-06T18:56:29;97416.94;;;3.89;100.00
20987;BME280;10652;50.306;8.570;2024-01-06T19:00:31;97422.19;;;3.86;100.00
20987;BME280;10652;50.306;8.570;2024-01-06T19:04:33;97426.44;;;3.90;100.00
20987;BME280;10652;50.306;8.570;2024-01-06T19:08:35;97420.44;;;3.88;100.00
20987;BME280;10652;50.306;8.570;2024-01-06T19:12:37;97415.25;;;3.88;100.00
20987;BME280;10652;50.306;8.570;2024-01-06T19:16:43;97424.00;;;3.84;100.00
20987;BME280;10652;50.306;8.570;2024-01-06T19:20:47;97422.19;;;3.86;100.00
20987;BME280;10652;50.306;8.570;2024-01-06T19:24:49;97428.25;;;3.87;100.00
20987;BME280;10652;50.306;8.570;2024-01-06T19:28:52;97432.56;;;3.86;100.00
20987;BME280;10652;50.306;8.570;2024-01-06T19:32:54;97430.09;;;3.83;100.00
20987;BME280;10652;50.306;8.570;2024-01-06T19:36:56;97439.69;;;3.81;100.00
20987;BME280;10652;50.306;8.570;2024-01-06T19:40:58;97429.28;;;3.81;100.00
20987;BME280;10652;50.306;8.570;2024-01-06T19:45:00;97430.97;;;3.82;100.00
20987;BME280;10652;50.306;8.570;2024-01-06T19:49:02;97430.13;;;3.81;100.00
20987;BME280;10652;50.306;8.570;2024-01-06T19:53:05;97437.97;;;3.80;100.00
20987;BME280;10652;50.306;8.570;2024-01-06T19:57:07;97435.44;;;3.77;100.00
20987;BME280;10652;50.306;8.570;2024-01-06T20:01:09;97438.84;;;3.80;100.00
20987;BME280;10652;50.306;8.570;2024-01-06T20:05:12;97443.94;;;3.83;100.00
20987;BME280;10652;50.306;8.570;2024-01-06T20:09:14;97444.72;;;3.87;100.00
20987;BME280;10652;50.306;8.570;2024-01-06T20:13:16;97451.63;;;3.88;100.00
20987;BME280;10652;50.306;8.570;2024-01-06T20:17:19;97456.78;;;3.90;100.00
20987;BME280;10652;50.306;8.570;2024-01-06T20:21:21;97448.53;;;3.74;100.00
20987;BME280;10652;50.306;8.570;2024-01-06T20:25:24;97456.59;;;3.65;100.00
20987;BME280;10652;50.306;8.570;2024-01-06T20:29:26;97450.63;;;3.63;100.00
20987;BME280;10652;50.306;8.570;2024-01-06T20:33:28;97455.81;;;3.63;100.00
20987;BME280;10652;50.306;8.570;2024-01-06T20:37:35;97454.00;;;3.65;100.00
20987;BME280;10652;50.306;8.570;2024-01-06T20:41:37;97457.31;;;3.70;100.00
20987;BME280;10652;50.306;8.570;2024-01-06T20:45:39;97454.81;;;3.67;100.00
20987;BME280;10652;50.306;8.570;2024-01-06T20:49:43;97466.19;;;3.63;100.00
20987;BME280;10652;50.306;8.570;2024-01-06T20:53:47;97464.53;;;3.60;100.00
20987;BME280;10652;50.306;8.570;2024-01-06T20:57:49;97458.53;;;3.58;100.00
20987;BME280;10652;50.306;8.570;2024-01-06T21:01:51;97465.41;;;3.59;100.00
20987;BME280;10652;50.306;8.570;2024-01-06T21:05:53;97466.34;;;3.58;100.00
20987;BME280;10652;50.306;8.570;2024-01-06T21:09:56;97459.69;;;3.48;100.00
20987;BME280;10652;50.306;8.570;2024-01-06T21:13:58;97461.44;;;3.48;100.00
20987;BME280;10652;50.306;8.570;2024-01-06T21:18:00;97460.47;;;3.50;100.00
20987;BME280;10652;50.306;8.570;2024-01-06T21:22:02;97458.00;;;3.46;100.00
20987;BME280;10652;50.306;8.570;2024-01-06T21:26:05;97458.00;;;3.46;100.00
20987;BME280;10652;50.306;8.570;2024-01-06T21:30:07;97463.22;;;3.46;100.00
20987;BME280;10652;50.306;8.570;2024-01-06T21:34:10;97459.72;;;3.47;100.00
20987;BME280;10652;50.306;8.570;2024-01-06T21:38:12;97464.06;;;3.46;100.00
20987;BME280;10652;50.306;8.570;2024-01-06T21:42:14;97475.19;;;3.50;100.00